KPNE/PNE METAR and TAF weather

Enter ICAO airport designator
Station Type Date Time Source
KPNE METAR 2021/07/28 19:54 UTC NOAA

KPNE 281954Z 06006KT 10SM CLR 28/17 A2999 RMK AO2 SLP154 T02780167


Station Type Date Time Source
KPNE Decoded METAR 2021/07/28 19:54 UTC NOAA

N.E. PHILADELPHIA AIRPORT, PA, United States (KPNE) 40-05N 075-01W 28M
Jul 28, 2021 - 03:54 PM EDT / 2021.07.28 1954 UTC
Wind: from the ENE (060 degrees) at 7 MPH (6 KT):0
Visibility: 10 mile(s):0
Sky conditions: clear
Temperature: 82.0 F (27.8 C)
Dew Point: 62.1 F (16.7 C)
Relative Humidity: 50%
Pressure (altimeter): 29.99 in. Hg (1015 hPa)
ob: KPNE 281954Z 06006KT 10SM CLR 28/17 A2999 RMK AO2 SLP154 T02780167
cycle: 20

Station Type Date Time Source
KPNE TAF 2021/07/28 18:39 UTC NOAA

TAF KPNE 281736Z 2818/2918 01008KT P6SM FEW045
FM282300 09005KT P6SM SKC
FM290900 11003KT P6SM VCSH SCT020 BKN060
FM291200 14005KT P6SM VCSH SCT015 BKN045
FM291500 19008KT P6SM VCSH BKN040 PROB30 2915/2918 5SM -SHRA

Example: see airport list